Time;durP1;ratioP1;P1;durP2;ratioP2;P2;SDS_P1;SDS_P2;PMS_P1;PMS_P2;Temp;Humidity;BMP_temperature;BMP_pressure;BME280_temperature;BME280_humidity;BME280_pressure;Samples;Min_cycle;Max_cycle;Signal;HPM_P1;HPM_P2
2023/10/28 00:00:16;;;;;;;12.25;7.88;;;10.00;99.90;;;;;;5034046;28;20061;-79
2023/10/28 00:02:43;;;;;;;13.13;8.43;;;10.00;99.90;;;;;;5034242;28;20061;-79
2023/10/28 00:05:08;;;;;;;13.32;8.35;;;10.00;99.90;;;;;;5032521;28;20053;-79
2023/10/28 00:07:34;;;;;;;15.88;8.20;;;10.00;99.90;;;;;;5032578;28;20042;-79
2023/10/28 00:09:59;;;;;;;13.95;7.95;;;10.00;99.90;;;;;;5031902;28;20571;-78
2023/10/28 00:12:25;;;;;;;14.68;8.38;;;10.00;99.90;;;;;;5032377;28;20037;-78
2023/10/28 00:14:51;;;;;;;14.13;8.95;;;10.00;99.90;;;;;;5031964;28;20033;-79
2023/10/28 00:17:17;;;;;;;13.55;9.02;;;10.00;99.90;;;;;;5032776;28;20042;-79
2023/10/28 00:19:43;;;;;;;17.67;9.38;;;10.00;99.90;;;;;;5031858;28;20037;-79
2023/10/28 00:22:08;;;;;;;18.23;10.15;;;10.00;99.90;;;;;;5016458;28;20111;-78
2023/10/28 00:24:34;;;;;;;17.25;9.73;;;10.00;99.90;;;;;;5032195;28;20094;-80
2023/10/28 00:26:59;;;;;;;20.52;10.60;;;10.00;99.90;;;;;;5031922;28;20071;-78
2023/10/28 00:29:25;;;;;;;19.25;10.82;;;10.00;99.90;;;;;;5032266;28;20053;-79
2023/10/28 00:31:51;;;;;;;22.00;11.27;;;10.00;99.90;;;;;;5033004;28;20037;-78
2023/10/28 00:34:17;;;;;;;21.38;12.73;;;10.00;99.90;;;;;;5032845;28;20056;-79
2023/10/28 00:36:42;;;;;;;23.25;11.93;;;10.00;99.90;;;;;;5030885;28;20556;-79
2023/10/28 00:39:10;;;;;;;24.00;12.40;;;10.00;99.90;;;;;;5031308;28;20048;-78
2023/10/28 00:41:37;;;;;;;21.67;11.63;;;10.00;99.90;;;;;;5013594;28;20065;-79
2023/10/28 00:44:03;;;;;;;24.60;13.40;;;10.00;99.90;;;;;;5032311;28;20044;-79
2023/10/28 00:46:28;;;;;;;24.15;12.30;;;10.00;99.90;;;;;;5033145;28;20124;-79
2023/10/28 00:48:55;;;;;;;26.88;13.73;;;10.00;99.90;;;;;;5034205;28;20045;-78
2023/10/28 00:51:21;;;;;;;27.48;14.23;;;10.10;99.90;;;;;;5032571;28;20113;-80
2023/10/28 00:53:47;;;;;;;29.70;14.70;;;10.10;99.90;;;;;;5033610;28;20133;-79
2023/10/28 00:56:13;;;;;;;28.15;15.52;;;10.10;99.90;;;;;;5035848;28;20081;-80
2023/10/28 00:58:40;;;;;;;27.63;15.23;;;10.00;99.90;;;;;;5039799;28;20068;-80
2023/10/28 01:01:10;;;;;;;31.67;17.27;;;10.10;99.90;;;;;;5039334;28;20037;-80
2023/10/28 01:03:35;;;;;;;35.03;17.98;;;10.10;99.90;;;;;;5040278;28;20072;-81
2023/10/28 01:06:01;;;;;;;37.40;19.30;;;10.10;99.90;;;;;;5039591;28;20041;-80
2023/10/28 01:08:26;;;;;;;37.53;18.33;;;10.10;99.90;;;;;;5041162;28;20045;-80
2023/10/28 01:10:52;;;;;;;32.90;17.90;;;10.10;99.90;;;;;;5040342;28;20045;-81
2023/10/28 01:13:19;;;;;;;41.78;19.95;;;10.10;99.90;;;;;;5041056;28;20049;-81
2023/10/28 01:15:44;;;;;;;37.72;19.75;;;10.10;99.90;;;;;;5039941;28;20041;-81
2023/10/28 01:18:10;;;;;;;36.13;18.98;;;10.10;99.90;;;;;;5037549;28;20030;-81
2023/10/28 01:20:36;;;;;;;40.08;20.75;;;10.10;99.90;;;;;;5037655;28;20455;-80
2023/10/28 01:23:01;;;;;;;38.72;20.80;;;10.10;99.90;;;;;;5035268;28;20078;-79
2023/10/28 01:25:28;;;;;;;39.22;20.23;;;10.10;99.90;;;;;;5038679;28;20119;-80
2023/10/28 01:27:53;;;;;;;41.60;20.25;;;10.10;99.90;;;;;;5034209;28;20041;-80
2023/10/28 01:30:19;;;;;;;40.42;21.55;;;10.10;99.90;;;;;;5038790;28;20060;-81
2023/10/28 01:32:44;;;;;;;41.60;21.92;;;10.10;99.90;;;;;;5034992;28;20164;-80
2023/10/28 01:35:10;;;;;;;37.97;21.15;;;10.10;99.90;;;;;;5036798;28;20049;-80
2023/10/28 01:37:40;;;;;;;42.95;22.27;;;10.10;99.90;;;;;;5037002;28;20037;-80
2023/10/28 01:40:13;;;;;;;38.05;20.67;;;10.10;99.90;;;;;;5038760;28;20227;-80
2023/10/28 01:42:39;;;;;;;50.43;22.67;;;10.10;99.90;;;;;;5037456;28;20045;-80
2023/10/28 01:45:05;;;;;;;42.33;22.20;;;10.10;99.90;;;;;;5040103;28;20045;-80
2023/10/28 01:47:31;;;;;;;42.38;21.73;;;10.10;99.90;;;;;;5039119;28;20424;-80
2023/10/28 01:49:58;;;;;;;46.42;22.20;;;10.10;99.90;;;;;;5039032;28;20048;-80
2023/10/28 01:52:24;;;;;;;46.50;22.40;;;10.10;99.90;;;;;;5039858;28;20038;-80
2023/10/28 01:54:50;;;;;;;49.63;22.13;;;10.10;99.90;;;;;;5041617;28;20048;-80
2023/10/28 01:57:16;;;;;;;44.65;22.25;;;10.10;99.90;;;;;;5039568;28;20071;-80
2023/10/28 01:59:43;;;;;;;43.92;22.40;;;10.10;99.90;;;;;;5037690;28;20091;-80
2023/10/28 02:02:09;;;;;;;46.97;22.88;;;10.00;99.90;;;;;;5036074;28;20056;-80
2023/10/28 02:04:34;;;;;;;43.95;21.35;;;10.00;99.90;;;;;;5036488;28;20045;-80
2023/10/28 02:07:00;;;;;;;41.05;22.13;;;10.00;99.90;;;;;;5025053;28;20639;-80
2023/10/28 02:09:27;;;;;;;46.55;22.83;;;10.00;99.90;;;;;;5044459;28;20072;-80
2023/10/28 02:11:53;;;;;;;50.20;22.90;;;10.00;99.90;;;;;;5040704;28;20033;-80
2023/10/28 02:14:19;;;;;;;43.15;21.30;;;9.90;99.90;;;;;;5041524;28;20084;-80
2023/10/28 02:16:45;;;;;;;44.78;20.83;;;9.90;99.90;;;;;;5040414;28;20036;-80
2023/10/28 02:19:11;;;;;;;41.38;21.92;;;9.90;99.90;;;;;;5023750;28;20041;-80
2023/10/28 02:21:36;;;;;;;40.05;21.00;;;9.90;99.90;;;;;;5038275;28;20515;-80
2023/10/28 02:24:03;;;;;;;45.45;22.58;;;9.90;99.90;;;;;;5040019;28;20416;-80
2023/10/28 02:26:30;;;;;;;39.95;21.25;;;9.90;99.90;;;;;;5036653;28;20545;-80
2023/10/28 02:28:55;;;;;;;44.30;21.73;;;9.80;99.90;;;;;;5037749;28;20073;-80
2023/10/28 02:31:21;;;;;;;40.92;21.23;;;9.80;99.90;;;;;;5038812;28;20520;-80
2023/10/28 02:33:46;;;;;;;41.03;19.95;;;9.80;99.90;;;;;;5037578;28;20092;-80
2023/10/28 02:36:12;;;;;;;39.90;19.70;;;9.80;99.90;;;;;;5038734;28;20517;-80
2023/10/28 02:38:40;;;;;;;39.20;19.98;;;9.70;99.90;;;;;;5038313;28;20041;-80
2023/10/28 02:41:06;;;;;;;43.33;19.92;;;9.60;99.90;;;;;;5040427;28;20057;-80
2023/10/28 02:43:35;;;;;;;40.55;19.67;;;9.70;99.90;;;;;;5039272;28;20076;-80
2023/10/28 02:46:01;;;;;;;38.20;20.40;;;9.60;99.90;;;;;;5042062;28;20059;-80
2023/10/28 02:48:27;;;;;;;43.60;20.52;;;9.50;99.90;;;;;;5041681;28;20099;-80
2023/10/28 02:50:53;;;;;;;38.35;20.23;;;9.50;99.90;;;;;;5042699;28;20061;-79
2023/10/28 02:53:19;;;;;;;39.00;20.02;;;9.60;99.90;;;;;;5044916;28;20049;-80
2023/10/28 02:55:44;;;;;;;38.22;19.52;;;9.50;99.90;;;;;;5043464;28;20078;-79
2023/10/28 02:58:10;;;;;;;36.67;19.75;;;9.50;99.90;;;;;;5041928;28;20041;-80
2023/10/28 03:00:36;;;;;;;38.03;20.27;;;9.50;99.90;;;;;;5042248;28;20041;-79
2023/10/28 03:03:03;;;;;;;36.30;19.42;;;9.50;99.90;;;;;;5041476;28;20050;-79
2023/10/28 03:05:29;;;;;;;37.75;19.50;;;9.50;99.90;;;;;;5040851;28;20033;-79
2023/10/28 03:07:55;;;;;;;37.55;19.35;;;9.50;99.90;;;;;;5041260;28;20468;-79
2023/10/28 03:10:20;;;;;;;40.30;19.30;;;9.50;99.90;;;;;;5043372;28;20041;-80
2023/10/28 03:12:47;;;;;;;33.15;18.20;;;9.50;99.90;;;;;;5045316;28;20093;-80
2023/10/28 03:15:13;;;;;;;33.40;18.25;;;9.50;99.90;;;;;;5044557;28;20520;-80
2023/10/28 03:17:38;;;;;;;36.60;18.77;;;9.50;99.90;;;;;;5043271;28;20034;-79
2023/10/28 03:20:08;;;;;;;40.10;19.35;;;9.50;99.90;;;;;;5046066;28;20060;-80
2023/10/28 03:22:35;;;;;;;33.22;18.75;;;9.40;99.90;;;;;;5045865;28;20053;-80
2023/10/28 03:25:03;;;;;;;35.35;19.05;;;9.40;99.90;;;;;;5045893;28;20064;-80
2023/10/28 03:27:29;;;;;;;38.47;19.98;;;9.40;99.90;;;;;;5031297;28;20044;-80
2023/10/28 03:29:55;;;;;;;34.67;18.70;;;9.40;99.90;;;;;;5046204;28;20034;-79
2023/10/28 03:32:20;;;;;;;36.55;18.15;;;9.40;99.90;;;;;;5047252;28;20102;-79
2023/10/28 03:34:47;;;;;;;33.17;17.85;;;9.40;99.90;;;;;;5046709;28;20045;-80
2023/10/28 03:37:12;;;;;;;31.23;16.90;;;9.40;99.90;;;;;;5049191;28;20065;-79
2023/10/28 03:39:38;;;;;;;33.10;16.73;;;9.40;99.90;;;;;;5048036;28;20052;-80
2023/10/28 03:42:07;;;;;;;32.42;18.50;;;9.40;99.90;;;;;;5047197;28;20113;-80
2023/10/28 03:44:33;;;;;;;34.00;16.92;;;9.40;99.90;;;;;;5049208;28;20048;-80
2023/10/28 03:46:58;;;;;;;28.45;16.23;;;9.40;99.90;;;;;;5045732;28;20045;-80
2023/10/28 03:49:24;;;;;;;32.95;17.90;;;9.30;99.90;;;;;;5030718;28;20041;-80
2023/10/28 03:51:49;;;;;;;31.10;16.58;;;9.40;99.90;;;;;;5047432;28;20117;-80
2023/10/28 03:54:15;;;;;;;32.22;16.80;;;9.40;99.90;;;;;;5047692;28;20402;-80
2023/10/28 03:56:40;;;;;;;33.60;17.52;;;9.30;99.90;;;;;;5048096;28;20037;-80
2023/10/28 03:59:06;;;;;;;29.55;15.90;;;9.30;99.90;;;;;;5048558;28;20112;-80
2023/10/28 04:01:31;;;;;;;30.50;16.88;;;9.30;99.90;;;;;;5047719;28;20079;-80
2023/10/28 04:03:57;;;;;;;27.90;16.52;;;9.30;99.90;;;;;;5046334;28;20429;-79
2023/10/28 04:06:23;;;;;;;32.78;16.27;;;9.30;99.90;;;;;;5043421;28;20049;-80
2023/10/28 04:08:48;;;;;;;31.15;16.55;;;9.30;99.90;;;;;;5043925;28;20045;-79
2023/10/28 04:11:14;;;;;;;29.88;15.57;;;9.30;99.90;;;;;;5042969;28;20080;-80
2023/10/28 04:13:40;;;;;;;28.33;16.48;;;9.30;99.90;;;;;;5039323;28;20059;-79
2023/10/28 04:16:05;;;;;;;28.40;17.15;;;9.30;99.90;;;;;;5041558;28;20097;-80
2023/10/28 04:18:31;;;;;;;24.13;16.15;;;9.30;99.90;;;;;;5041882;28;20078;-79
2023/10/28 04:20:57;;;;;;;32.45;16.38;;;9.30;99.90;;;;;;5039571;28;20537;-80
2023/10/28 04:23:22;;;;;;;30.02;16.52;;;9.20;99.90;;;;;;5043686;28;20460;-80
2023/10/28 04:25:48;;;;;;;28.60;16.63;;;9.20;99.90;;;;;;5038798;28;20238;-79
2023/10/28 04:28:14;;;;;;;29.92;15.80;;;9.20;99.90;;;;;;5038730;28;20092;-80
2023/10/28 04:30:39;;;;;;;27.65;16.77;;;9.20;99.90;;;;;;5037849;28;20076;-80
2023/10/28 04:33:05;;;;;;;27.35;16.10;;;9.20;99.90;;;;;;5043218;28;20037;-80
2023/10/28 04:35:31;;;;;;;30.80;16.58;;;9.30;99.90;;;;;;5045559;28;20060;-80
2023/10/28 04:37:57;;;;;;;31.08;16.73;;;9.30;99.90;;;;;;5029389;28;20060;-80
2023/10/28 04:40:22;;;;;;;30.92;18.40;;;9.30;99.90;;;;;;5045721;28;20042;-80
2023/10/28 04:42:48;;;;;;;27.85;16.95;;;9.30;99.90;;;;;;5039477;28;20033;-79
2023/10/28 04:45:13;;;;;;;28.42;16.30;;;9.30;99.90;;;;;;5042346;28;20475;-80
2023/10/28 04:47:39;;;;;;;31.30;17.52;;;9.30;99.90;;;;;;5037863;28;20049;-79
2023/10/28 04:50:05;;;;;;;28.83;17.02;;;9.30;99.90;;;;;;5040532;28;20042;-79
2023/10/28 04:52:31;;;;;;;27.23;17.33;;;9.30;99.90;;;;;;5042189;28;20030;-79
2023/10/28 04:54:58;;;;;;;31.92;16.92;;;9.40;99.90;;;;;;5042615;28;20033;-79
2023/10/28 04:57:24;;;;;;;29.90;17.02;;;9.40;99.90;;;;;;5041263;28;20083;-79
2023/10/28 04:59:49;;;;;;;29.55;17.27;;;9.40;99.90;;;;;;5042575;28;20041;-80
2023/10/28 05:02:15;;;;;;;31.33;17.10;;;9.40;99.90;;;;;;5038030;28;20048;-80
2023/10/28 05:04:41;;;;;;;30.85;17.20;;;9.40;99.90;;;;;;5041989;28;20056;-80
2023/10/28 05:07:06;;;;;;;30.90;18.10;;;9.40;99.90;;;;;;5028107;28;20104;-80
2023/10/28 05:09:32;;;;;;;28.42;17.40;;;9.40;99.90;;;;;;5027475;28;20107;-80
2023/10/28 05:11:58;;;;;;;30.73;17.25;;;9.50;99.90;;;;;;5042288;28;20041;-79
2023/10/28 05:14:24;;;;;;;27.45;16.38;;;9.50;99.90;;;;;;5041633;28;20046;-80
2023/10/28 05:16:51;;;;;;;30.75;16.95;;;9.50;99.90;;;;;;5042572;28;20117;-80
2023/10/28 05:19:18;;;;;;;33.92;16.40;;;9.50;99.90;;;;;;5041094;28;20045;-80
2023/10/28 05:21:44;;;;;;;32.75;16.63;;;9.50;99.90;;;;;;5040545;28;20037;-79
2023/10/28 05:24:10;;;;;;;33.22;17.35;;;9.50;99.90;;;;;;5041714;28;20509;-79
2023/10/28 05:26:35;;;;;;;29.80;16.08;;;9.50;99.90;;;;;;5038785;28;20041;-79
2023/10/28 05:29:01;;;;;;;36.30;17.40;;;9.50;99.90;;;;;;5038567;28;20504;-79
2023/10/28 05:31:26;;;;;;;37.83;17.98;;;9.50;99.90;;;;;;5039513;28;20052;-80
2023/10/28 05:33:52;;;;;;;32.80;17.15;;;9.50;99.90;;;;;;5039155;28;20056;-80
2023/10/28 05:36:18;;;;;;;32.67;17.63;;;9.60;99.90;;;;;;5021269;28;20401;-79
2023/10/28 05:38:43;;;;;;;33.63;18.25;;;9.60;99.90;;;;;;5036883;28;20038;-79
2023/10/28 05:41:10;;;;;;;35.65;18.98;;;9.50;99.90;;;;;;5036279;28;20049;-80
2023/10/28 05:43:35;;;;;;;34.33;17.90;;;9.50;99.90;;;;;;5037338;28;20045;-79
2023/10/28 05:46:02;;;;;;;30.08;16.85;;;9.50;99.90;;;;;;5038894;28;20461;-80
2023/10/28 05:48:28;;;;;;;36.47;17.45;;;9.60;99.90;;;;;;5040734;28;20043;-79
2023/10/28 05:50:55;;;;;;;33.80;17.23;;;9.60;99.90;;;;;;5040675;28;20037;-80
2023/10/28 05:53:22;;;;;;;35.58;16.90;;;9.60;99.90;;;;;;5041114;28;20045;-80
2023/10/28 05:55:47;;;;;;;34.42;18.30;;;9.60;99.90;;;;;;5039637;28;20050;-79
2023/10/28 05:58:13;;;;;;;31.02;18.20;;;9.60;99.90;;;;;;5036620;28;20105;-80
2023/10/28 06:00:41;;;;;;;33.75;18.05;;;9.60;99.90;;;;;;5034764;28;20064;-80
2023/10/28 06:03:07;;;;;;;37.22;19.33;;;9.60;99.90;;;;;;5035829;28;20053;-80
2023/10/28 06:05:34;;;;;;;37.40;17.48;;;9.60;99.90;;;;;;5036843;28;20045;-80
2023/10/28 06:07:59;;;;;;;31.33;17.45;;;9.60;99.90;;;;;;5034072;28;20550;-80
2023/10/28 06:10:25;;;;;;;33.22;17.50;;;9.60;99.90;;;;;;5036098;28;20041;-80
2023/10/28 06:12:52;;;;;;;30.52;16.55;;;9.60;99.90;;;;;;5037347;28;20076;-80
2023/10/28 06:15:17;;;;;;;31.48;16.08;;;9.60;99.90;;;;;;5037113;28;20041;-79
2023/10/28 06:17:45;;;;;;;30.40;16.45;;;9.60;99.90;;;;;;5038029;28;20038;-80
2023/10/28 06:20:11;;;;;;;28.50;15.18;;;9.70;99.90;;;;;;5035125;28;20042;-80
2023/10/28 06:22:36;;;;;;;25.75;15.52;;;9.70;99.90;;;;;;5019933;28;20044;-79
2023/10/28 06:25:04;;;;;;;30.67;16.02;;;9.70;99.90;;;;;;5035278;28;20041;-79
2023/10/28 06:27:35;;;;;;;36.13;16.67;;;9.70;99.90;;;;;;5033252;28;20063;-79
2023/10/28 06:30:01;;;;;;;35.58;16.42;;;9.70;99.90;;;;;;5021735;28;20069;-80
2023/10/28 06:32:30;;;;;;;27.95;16.50;;;9.70;99.90;;;;;;5015992;28;20046;-79
2023/10/28 06:34:55;;;;;;;25.33;15.15;;;9.70;99.90;;;;;;5028935;28;20045;-80
2023/10/28 06:37:21;;;;;;;26.05;15.00;;;9.70;99.90;;;;;;5031825;28;20034;-79
2023/10/28 06:39:47;;;;;;;29.05;15.48;;;9.70;99.90;;;;;;5017695;28;20060;-80
2023/10/28 06:42:13;;;;;;;22.73;14.57;;;9.70;99.90;;;;;;5015424;28;20069;-80
2023/10/28 06:44:39;;;;;;;28.77;15.65;;;9.80;99.90;;;;;;5030035;28;20049;-79
2023/10/28 06:47:04;;;;;;;27.58;14.98;;;9.80;99.90;;;;;;5031571;28;20112;-80
2023/10/28 06:49:31;;;;;;;34.63;15.50;;;9.80;99.90;;;;;;5030809;28;20501;-80
2023/10/28 06:51:57;;;;;;;27.30;15.75;;;9.80;99.90;;;;;;5034214;28;20045;-80
2023/10/28 06:54:23;;;;;;;24.42;14.63;;;9.80;99.90;;;;;;5036099;28;20076;-80
2023/10/28 06:56:49;;;;;;;27.13;14.23;;;9.80;99.90;;;;;;5036981;28;20132;-80
2023/10/28 06:59:14;;;;;;;23.50;13.20;;;9.90;99.90;;;;;;5036568;28;20501;-79
2023/10/28 07:01:40;;;;;;;22.33;13.60;;;9.90;99.90;;;;;;5035863;28;20041;-79
2023/10/28 07:04:05;;;;;;;24.48;14.30;;;9.90;99.90;;;;;;5034439;28;20071;-79
2023/10/28 07:06:31;;;;;;;28.05;13.43;;;9.90;99.90;;;;;;5034889;28;20132;-79
2023/10/28 07:08:57;;;;;;;24.65;13.27;;;9.90;99.90;;;;;;5035533;28;20060;-79
2023/10/28 07:11:23;;;;;;;20.35;12.82;;;9.90;99.90;;;;;;5037446;28;20045;-80
2023/10/28 07:13:49;;;;;;;21.98;12.50;;;9.90;99.90;;;;;;5035377;28;20064;-79
2023/10/28 07:16:20;;;;;;;22.33;12.93;;;9.90;99.90;;;;;;5035504;28;20092;-79
2023/10/28 07:18:46;;;;;;;18.48;11.55;;;9.90;99.90;;;;;;5034596;28;20440;-80
2023/10/28 07:21:11;;;;;;;22.90;12.20;;;10.00;99.90;;;;;;5034259;28;20042;-80
2023/10/28 07:23:37;;;;;;;18.75;12.10;;;10.00;99.90;;;;;;5035072;28;20510;-80
2023/10/28 07:26:03;;;;;;;16.52;11.05;;;10.00;99.90;;;;;;5036509;28;20154;-80
2023/10/28 07:28:36;;;;;;;19.63;10.52;;;10.00;99.90;;;;;;5033558;28;20037;-80
2023/10/28 07:31:01;;;;;;;20.70;10.38;;;10.00;99.90;;;;;;5035168;28;20046;-80
2023/10/28 07:33:27;;;;;;;14.55;10.23;;;10.10;99.90;;;;;;5034477;28;20049;-79
2023/10/28 07:35:53;;;;;;;19.77;10.70;;;10.10;99.90;;;;;;5035921;28;20075;-80
2023/10/28 07:38:20;;;;;;;17.05;10.02;;;10.10;99.90;;;;;;5035937;28;20045;-80
2023/10/28 07:40:47;;;;;;;15.70;10.35;;;10.10;99.90;;;;;;5017710;28;20053;-80
2023/10/28 07:43:15;;;;;;;17.65;10.00;;;10.10;99.90;;;;;;5035485;28;20038;-80
2023/10/28 07:45:42;;;;;;;13.65;9.63;;;10.10;99.90;;;;;;5018898;28;20116;-80
2023/10/28 07:48:11;;;;;;;14.85;9.93;;;10.10;99.90;;;;;;5035857;28;20051;-80
2023/10/28 07:50:37;;;;;;;15.30;8.98;;;10.20;99.90;;;;;;5018782;28;20033;-80
2023/10/28 07:53:06;;;;;;;15.88;8.63;;;10.30;99.90;;;;;;5035961;28;20042;-80
2023/10/28 07:55:36;;;;;;;13.10;9.07;;;10.30;99.90;;;;;;5035643;28;20390;-80
2023/10/28 07:58:02;;;;;;;11.23;7.55;;;10.30;99.90;;;;;;5034621;28;20136;-80
2023/10/28 08:00:29;;;;;;;10.57;8.30;;;10.30;99.90;;;;;;5035478;28;20525;-80
2023/10/28 08:02:54;;;;;;;15.60;8.20;;;10.30;99.90;;;;;;5034979;28;20087;-80
2023/10/28 08:05:20;;;;;;;11.07;7.82;;;10.30;99.90;;;;;;5038406;28;20134;-80
2023/10/28 08:07:50;;;;;;;9.27;7.28;;;10.30;99.90;;;;;;5037907;28;20132;-80
2023/10/28 08:10:17;;;;;;;14.25;8.50;;;10.30;99.90;;;;;;5020874;28;20030;-80
2023/10/28 08:12:42;;;;;;;10.98;7.07;;;10.30;99.90;;;;;;5038153;28;20072;-80
2023/10/28 08:15:08;;;;;;;10.55;6.93;;;10.30;99.90;;;;;;5038036;28;20045;-80
2023/10/28 08:17:34;;;;;;;10.25;7.05;;;10.30;99.90;;;;;;5040857;28;20120;-80
2023/10/28 08:20:00;;;;;;;13.52;7.25;;;10.30;99.90;;;;;;5037960;28;20044;-80
2023/10/28 08:22:26;;;;;;;10.25;7.63;;;10.40;99.90;;;;;;5035417;28;20042;-79
2023/10/28 08:24:52;;;;;;;16.15;7.78;;;10.40;99.90;;;;;;5034494;28;20072;-79
2023/10/28 08:27:18;;;;;;;10.27;7.47;;;10.50;99.90;;;;;;5037116;28;20034;-80
2023/10/28 08:29:43;;;;;;;14.60;7.68;;;10.50;99.90;;;;;;5037014;28;20037;-80
2023/10/28 08:32:10;;;;;;;10.77;7.20;;;10.50;99.90;;;;;;5035102;28;20068;-80
2023/10/28 08:34:35;;;;;;;11.63;7.47;;;10.50;99.90;;;;;;5018804;28;20033;-80
2023/10/28 08:37:01;;;;;;;8.90;6.53;;;10.40;99.90;;;;;;5035325;28;20087;-80
2023/10/28 08:39:28;;;;;;;10.68;7.10;;;10.50;99.90;;;;;;5036974;28;20093;-81
2023/10/28 08:41:54;;;;;;;10.45;6.78;;;10.50;99.90;;;;;;5037020;28;20048;-80
2023/10/28 08:44:27;;;;;;;12.60;6.78;;;10.50;99.90;;;;;;5020301;28;20049;-80
2023/10/28 08:46:53;;;;;;;11.88;7.13;;;10.40;99.90;;;;;;5035838;28;20041;-81
2023/10/28 08:49:21;;;;;;;9.88;6.82;;;10.50;99.90;;;;;;5035923;28;20574;-80
2023/10/28 08:51:52;;;;;;;9.68;6.97;;;10.50;99.90;;;;;;5033748;28;20106;-80
2023/10/28 08:54:18;;;;;;;9.38;7.15;;;10.60;99.90;;;;;;5033336;28;20045;-79
2023/10/28 08:56:46;;;;;;;10.52;6.32;;;10.60;99.90;;;;;;5033454;28;20075;-80
2023/10/28 08:59:12;;;;;;;12.50;7.72;;;10.60;99.90;;;;;;5034212;28;20033;-80
2023/10/28 09:01:39;;;;;;;10.15;6.45;;;10.70;99.90;;;;;;5015648;28;20041;-80
2023/10/28 09:04:05;;;;;;;9.50;6.50;;;10.70;99.90;;;;;;5037022;28;20047;-81
2023/10/28 09:06:31;;;;;;;11.60;6.60;;;10.80;99.90;;;;;;5032752;28;20037;-80
2023/10/28 09:09:00;;;;;;;11.15;6.30;;;10.80;99.90;;;;;;5017885;28;20033;-81
2023/10/28 09:11:27;;;;;;;10.45;6.47;;;10.80;99.90;;;;;;5033812;28;20117;-80
2023/10/28 09:13:53;;;;;;;10.43;6.30;;;10.80;99.90;;;;;;5016119;28;20042;-80
2023/10/28 09:16:18;;;;;;;10.73;7.07;;;10.90;99.90;;;;;;5017415;28;20045;-80
2023/10/28 09:18:44;;;;;;;9.48;6.47;;;10.90;99.90;;;;;;5035259;28;20033;-81
2023/10/28 09:21:11;;;;;;;12.55;6.25;;;10.90;99.90;;;;;;5017250;28;20040;-80
2023/10/28 09:23:38;;;;;;;12.43;6.50;;;11.00;99.90;;;;;;5034316;28;20103;-80
2023/10/28 09:26:04;;;;;;;8.25;5.63;;;11.00;99.90;;;;;;5035200;28;20535;-80
2023/10/28 09:28:33;;;;;;;8.75;5.93;;;11.00;99.90;;;;;;5034446;28;20064;-81
2023/10/28 09:30:59;;;;;;;7.97;5.18;;;11.10;99.90;;;;;;5033856;28;20049;-80
2023/10/28 09:33:26;;;;;;;8.57;4.80;;;11.10;99.90;;;;;;5034463;28;20048;-81
2023/10/28 09:35:56;;;;;;;9.95;5.00;;;11.10;99.90;;;;;;5033686;28;20055;-80
2023/10/28 09:38:22;;;;;;;9.35;5.85;;;11.10;99.90;;;;;;5033971;28;20042;-80
2023/10/28 09:40:48;;;;;;;7.40;5.13;;;11.20;99.90;;;;;;5033991;28;20089;-80
2023/10/28 09:43:17;;;;;;;7.22;5.05;;;11.20;99.90;;;;;;5034764;28;20080;-81
2023/10/28 09:45:46;;;;;;;10.73;5.57;;;11.20;99.90;;;;;;5034078;28;20048;-80
2023/10/28 09:48:15;;;;;;;8.43;4.95;;;11.30;99.90;;;;;;5034979;28;20531;-80
2023/10/28 09:50:50;;;;;;;8.68;5.30;;;11.30;99.90;;;;;;5018203;28;20037;-80
2023/10/28 09:53:18;;;;;;;7.07;5.15;;;11.30;99.90;;;;;;5032935;28;20046;-80
2023/10/28 09:55:45;;;;;;;10.60;5.47;;;11.30;99.90;;;;;;5035478;28;20064;-80
2023/10/28 09:58:22;;;;;;;10.60;5.30;;;11.40;99.90;;;;;;5032907;28;20042;-81
2023/10/28 10:00:54;;;;;;;10.25;5.25;;;11.40;99.90;;;;;;5034043;28;20033;-80
2023/10/28 10:03:33;;;;;;;8.27;4.93;;;11.40;99.90;;;;;;5034787;28;20597;-80
2023/10/28 10:05:59;;;;;;;8.45;5.60;;;11.40;99.90;;;;;;5034698;28;20068;-80
2023/10/28 10:08:25;;;;;;;7.78;5.55;;;11.40;99.90;;;;;;5033954;28;20108;-80
2023/10/28 10:10:57;;;;;;;7.80;5.38;;;11.40;99.90;;;;;;5032294;28;20072;-80
2023/10/28 10:13:23;;;;;;;9.00;5.13;;;11.40;99.90;;;;;;5033453;28;20076;-80
2023/10/28 10:16:00;;;;;;;8.02;5.13;;;11.40;99.90;;;;;;5032386;28;20045;-81
2023/10/28 10:18:47;;;;;;;8.88;5.05;;;11.40;99.90;;;;;;5033261;28;20393;-80
2023/10/28 10:21:18;;;;;;;7.40;4.80;;;11.40;99.90;;;;;;5032142;28;20042;-80
2023/10/28 10:23:52;;;;;;;8.68;4.45;;;11.40;99.90;;;;;;5032320;28;20101;-81
2023/10/28 10:26:28;;;;;;;7.97;4.78;;;11.50;99.90;;;;;;5037202;28;20045;-82
2023/10/28 10:28:56;;;;;;;5.65;4.30;;;11.40;99.90;;;;;;5037022;28;20108;-82
2023/10/28 10:31:23;;;;;;;12.57;5.88;;;11.40;99.90;;;;;;5038755;28;20064;-82
2023/10/28 10:34:08;;;;;;;9.15;4.68;;;11.40;99.90;;;;;;5036588;28;20071;-81
2023/10/28 10:36:40;;;;;;;8.82;4.35;;;11.50;99.90;;;;;;5035823;28;20045;-81
2023/10/28 10:39:11;;;;;;;12.77;4.90;;;11.60;99.90;;;;;;5036831;28;20420;-81
2023/10/28 10:41:39;;;;;;;9.35;4.28;;;11.70;99.90;;;;;;5036237;28;20033;-80
2023/10/28 10:44:20;;;;;;;9.38;4.78;;;11.60;99.90;;;;;;5019666;28;20119;-81
2023/10/28 10:46:47;;;;;;;7.50;4.75;;;11.70;99.90;;;;;;5036110;28;20044;-80
2023/10/28 10:49:13;;;;;;;8.38;4.20;;;11.70;99.90;;;;;;5037822;28;20080;-80
2023/10/28 10:51:39;;;;;;;8.73;4.43;;;11.70;99.90;;;;;;5035784;28;20133;-81
2023/10/28 10:54:05;;;;;;;7.40;4.25;;;11.70;99.90;;;;;;5036375;28;20504;-81
2023/10/28 10:56:30;;;;;;;6.60;4.50;;;11.70;99.90;;;;;;5035353;28;20112;-81
2023/10/28 10:58:57;;;;;;;7.90;4.28;;;11.70;99.90;;;;;;5037529;28;20037;-80
2023/10/28 11:01:23;;;;;;;9.68;4.90;;;11.80;99.90;;;;;;5020636;28;20033;-81
2023/10/28 11:03:48;;;;;;;8.57;4.22;;;11.80;99.90;;;;;;5035441;28;20057;-81
2023/10/28 11:06:14;;;;;;;8.13;4.60;;;11.80;99.90;;;;;;5035153;28;20060;-82
2023/10/28 11:08:40;;;;;;;11.75;4.60;;;11.90;99.90;;;;;;5036495;28;20052;-83
2023/10/28 11:11:05;;;;;;;6.65;4.25;;;12.00;99.90;;;;;;5037377;28;20493;-80
2023/10/28 11:13:31;;;;;;;8.85;4.60;;;12.00;99.90;;;;;;5035201;28;20096;-82
2023/10/28 11:15:57;;;;;;;7.03;4.32;;;12.10;99.90;;;;;;5035642;28;20038;-81
2023/10/28 11:18:23;;;;;;;7.60;4.00;;;12.10;99.90;;;;;;5034412;28;20074;-83
2023/10/28 11:20:50;;;;;;;8.52;3.80;;;12.10;99.90;;;;;;5034550;28;20128;-80
2023/10/28 11:23:17;;;;;;;7.38;4.47;;;12.10;99.90;;;;;;5034824;28;20045;-82
2023/10/28 11:25:46;;;;;;;8.85;4.30;;;12.10;99.90;;;;;;5034563;28;20119;-82
2023/10/28 11:28:12;;;;;;;8.27;4.05;;;12.00;99.90;;;;;;5035265;28;20225;-81
2023/10/28 11:30:37;;;;;;;10.27;4.18;;;12.00;99.90;;;;;;5034384;28;20097;-82
2023/10/28 11:33:09;;;;;;;8.57;4.55;;;12.10;99.90;;;;;;5035085;28;20068;-82
2023/10/28 11:35:34;;;;;;;8.02;4.13;;;12.10;99.90;;;;;;5034472;28;20076;-80
2023/10/28 11:38:03;;;;;;;10.50;3.92;;;12.10;99.90;;;;;;5033280;28;20045;-80
2023/10/28 11:40:29;;;;;;;7.25;4.10;;;12.10;99.90;;;;;;5016537;28;20083;-81
2023/10/28 11:42:54;;;;;;;6.43;4.00;;;12.10;99.90;;;;;;5034062;28;20084;-80
2023/10/28 11:45:20;;;;;;;7.70;3.83;;;12.10;99.90;;;;;;5033674;28;20451;-85
2023/10/28 11:47:46;;;;;;;8.20;4.15;;;12.10;99.90;;;;;;5033460;28;20491;-81
2023/10/28 11:50:12;;;;;;;9.32;3.97;;;12.20;99.90;;;;;;5032971;28;20034;-81
2023/10/28 11:52:38;;;;;;;6.93;4.05;;;12.20;99.90;;;;;;5033440;28;20167;-81
2023/10/28 11:55:08;;;;;;;7.85;3.67;;;12.20;99.90;;;;;;5034183;28;20048;-80
2023/10/28 11:57:35;;;;;;;6.70;3.60;;;12.20;99.90;;;;;;5032906;28;20038;-85
2023/10/28 12:00:00;;;;;;;7.57;3.55;;;12.10;99.90;;;;;;5016300;28;20042;-82
2023/10/28 12:02:26;;;;;;;6.05;3.63;;;12.10;99.90;;;;;;5030897;28;20036;-82
2023/10/28 12:04:52;;;;;;;7.32;3.42;;;12.10;99.90;;;;;;5029756;28;20489;-82
2023/10/28 12:07:17;;;;;;;8.02;3.78;;;12.10;99.90;;;;;;5032787;28;20152;-81
2023/10/28 12:09:43;;;;;;;11.63;3.88;;;12.00;99.90;;;;;;5025776;28;20045;-83
2023/10/28 12:12:09;;;;;;;7.30;4.18;;;12.00;99.90;;;;;;5015068;28;20056;-83
2023/10/28 12:14:35;;;;;;;5.95;3.30;;;12.00;99.90;;;;;;5021921;28;20221;-82
2023/10/28 12:17:01;;;;;;;6.68;4.35;;;12.00;99.90;;;;;;5014636;28;20371;-82
2023/10/28 12:19:26;;;;;;;7.10;4.05;;;12.00;99.90;;;;;;5017841;28;20037;-81
2023/10/28 12:21:52;;;;;;;8.32;4.00;;;12.00;99.90;;;;;;5015928;28;20056;-82
2023/10/28 12:24:18;;;;;;;6.93;3.28;;;12.00;99.90;;;;;;5013772;28;20523;-81
2023/10/28 12:26:44;;;;;;;7.50;5.45;;;12.00;99.90;;;;;;5019776;28;20057;-83
2023/10/28 12:29:09;;;;;;;11.98;6.90;;;12.00;99.90;;;;;;5021007;28;20033;-84
2023/10/28 12:31:35;;;;;;;7.85;4.90;;;12.10;99.90;;;;;;5020254;28;20080;-83
2023/10/28 12:34:03;;;;;;;8.25;4.88;;;12.10;99.90;;;;;;5031318;28;20531;-82